Time;durP1;ratioP1;P1;durP2;ratioP2;P2;SDS_P1;SDS_P2;PMS_P1;PMS_P2;Temp;Humidity;BMP_temperature;BMP_pressure;BME280_temperature;BME280_humidity;BME280_pressure;Samples;Min_cycle;Max_cycle;Signal;HPM_P1;HPM_P2
2023/02/11 00:00:35;;;;;;;14.48;9.32;;;-0.50;59.30;;;;;;5095216;28;20231;-70
2023/02/11 00:03:02;;;;;;;14.43;9.50;;;-0.40;59.80;;;;;;5094948;28;20224;-72
2023/02/11 00:05:28;;;;;;;14.18;9.27;;;-0.40;59.30;;;;;;5094629;28;20312;-70
2023/02/11 00:07:57;;;;;;;16.40;10.07;;;-0.40;59.10;;;;;;5095347;28;20189;-70
2023/02/11 00:10:24;;;;;;;15.65;8.80;;;-0.50;59.10;;;;;;5094766;28;20192;-70
2023/02/11 00:12:51;;;;;;;12.55;8.70;;;-0.50;59.30;;;;;;5094828;28;20279;-71
2023/02/11 00:15:20;;;;;;;14.77;9.65;;;-0.50;59.30;;;;;;5094478;28;20225;-70
2023/02/11 00:17:47;;;;;;;18.10;10.00;;;-0.50;59.40;;;;;;5094718;28;20658;-70
2023/02/11 00:20:14;;;;;;;14.48;8.95;;;-0.60;59.90;;;;;;5094878;28;20277;-71
2023/02/11 00:22:41;;;;;;;17.98;9.02;;;-0.60;60.50;;;;;;5095084;28;20275;-71
2023/02/11 00:25:09;;;;;;;16.92;9.10;;;-0.70;60.40;;;;;;5094671;28;20335;-70
2023/02/11 00:27:37;;;;;;;20.80;11.75;;;-0.80;60.90;;;;;;5095083;28;20272;-71
2023/02/11 00:30:04;;;;;;;19.25;12.48;;;-0.80;61.20;;;;;;5094420;28;20589;-70
2023/02/11 00:32:32;;;;;;;20.40;11.32;;;-0.90;61.50;;;;;;5093748;28;20610;-73
2023/02/11 00:34:59;;;;;;;19.80;10.27;;;-1.00;61.90;;;;;;5094605;28;20284;-71
2023/02/11 00:37:25;;;;;;;16.90;9.25;;;-1.10;62.00;;;;;;5094561;28;20632;-70
2023/02/11 00:39:52;;;;;;;13.10;9.57;;;-1.20;62.20;;;;;;5094377;28;20623;-71
2023/02/11 00:42:21;;;;;;;16.95;11.20;;;-1.20;62.60;;;;;;5094404;28;20375;-72
2023/02/11 00:44:49;;;;;;;13.40;8.15;;;-1.20;62.90;;;;;;5093729;28;20304;-71
2023/02/11 00:47:16;;;;;;;12.88;8.38;;;-1.10;62.80;;;;;;5094223;28;20651;-72
2023/02/11 00:49:43;;;;;;;15.93;8.13;;;-1.10;62.60;;;;;;5094228;28;20197;-74
2023/02/11 00:52:10;;;;;;;14.45;8.20;;;-1.00;62.40;;;;;;5093414;28;20621;-70
2023/02/11 00:54:42;;;;;;;13.25;8.25;;;-0.90;62.20;;;;;;5094566;28;20193;-69
2023/02/11 00:57:10;;;;;;;17.58;9.13;;;-0.90;62.00;;;;;;5094165;28;20256;-70
2023/02/11 00:59:39;;;;;;;16.92;9.35;;;-0.80;62.00;;;;;;5094158;28;20690;-70
2023/02/11 01:02:07;;;;;;;14.55;7.53;;;-0.80;61.30;;;;;;5094127;28;20716;-70
2023/02/11 01:04:34;;;;;;;17.60;9.75;;;-0.80;60.60;;;;;;5093828;28;20281;-71
2023/02/11 01:07:01;;;;;;;16.15;9.20;;;-0.70;60.20;;;;;;5093130;28;20618;-70
2023/02/11 01:09:28;;;;;;;11.65;7.88;;;-0.80;59.90;;;;;;5094066;28;20185;-70
2023/02/11 01:11:55;;;;;;;18.90;9.07;;;-0.80;59.70;;;;;;5093843;28;20191;-70
2023/02/11 01:14:23;;;;;;;13.07;7.45;;;-0.80;59.80;;;;;;5093606;28;20275;-71
2023/02/11 01:16:51;;;;;;;13.20;8.07;;;-0.80;60.00;;;;;;5093862;28;20234;-71
2023/02/11 01:19:18;;;;;;;15.68;8.40;;;-0.80;60.10;;;;;;5094064;28;20723;-70
2023/02/11 01:21:45;;;;;;;12.45;8.25;;;-0.80;59.90;;;;;;5093850;28;20277;-71
2023/02/11 01:24:13;;;;;;;14.30;10.00;;;-0.90;59.50;;;;;;5093966;28;20281;-70
2023/02/11 01:26:40;;;;;;;11.02;7.63;;;-0.80;59.20;;;;;;5093804;28;20220;-76
2023/02/11 01:29:08;;;;;;;12.45;8.13;;;-0.90;58.80;;;;;;5093362;28;20604;-70
2023/02/11 01:31:35;;;;;;;12.55;7.32;;;-1.00;59.10;;;;;;5093363;28;20265;-70
2023/02/11 01:34:03;;;;;;;13.38;7.10;;;-1.00;59.60;;;;;;5093047;28;20288;-70
2023/02/11 01:36:30;;;;;;;12.25;7.97;;;-1.00;59.50;;;;;;5092756;28;20280;-70
2023/02/11 01:38:57;;;;;;;13.82;7.15;;;-1.00;59.10;;;;;;5093415;28;20275;-70
2023/02/11 01:41:29;;;;;;;12.90;8.32;;;-1.00;59.10;;;;;;5093194;28;20217;-70
2023/02/11 01:43:56;;;;;;;17.73;8.82;;;-1.10;58.80;;;;;;5092991;28;20280;-70
2023/02/11 01:46:33;;;;;;;11.20;7.00;;;-1.10;58.80;;;;;;5092766;28;20593;-70
2023/02/11 01:49:06;;;;;;;13.18;8.15;;;-1.10;58.90;;;;;;5093125;28;20212;-71
2023/02/11 01:51:38;;;;;;;13.80;7.43;;;-1.10;59.40;;;;;;5093227;28;20189;-70
2023/02/11 01:59:44;;;;;;;10.57;7.13;;;-1.30;58.60;;;;;;5093056;28;20536;-70
2023/02/11 02:02:15;;;;;;;13.32;6.80;;;-1.30;58.80;;;;;;5093036;28;20683;-70
2023/02/11 02:04:48;;;;;;;11.50;6.72;;;-1.40;59.10;;;;;;5092616;28;20312;-70
2023/02/11 02:07:26;;;;;;;11.10;6.80;;;-1.30;59.70;;;;;;5092432;28;20228;-71
2023/02/11 02:09:59;;;;;;;15.73;7.93;;;-1.40;59.70;;;;;;5092918;28;20279;-70
2023/02/11 02:12:26;;;;;;;11.70;7.88;;;-1.50;59.70;;;;;;5092628;28;20228;-71
2023/02/11 02:15:23;;;;;;;13.23;7.45;;;-1.40;60.00;;;;;;5092729;28;20221;-70
2023/02/11 02:18:13;;;;;;;12.77;6.72;;;-1.40;60.80;;;;;;5072406;28;20274;-71
2023/02/11 02:21:32;;;;;;;11.45;7.05;;;-1.40;61.30;;;;;;5074428;28;20189;-71
2023/02/11 02:24:36;;;;;;;17.52;8.48;;;-1.40;61.70;;;;;;5092279;28;20317;-70
2023/02/11 02:27:40;;;;;;;11.02;7.38;;;-1.30;61.60;;;;;;5092100;28;20220;-69
2023/02/11 02:30:34;;;;;;;10.68;6.95;;;-1.30;61.80;;;;;;5092082;28;20193;-69
2023/02/11 02:33:15;;;;;;;13.68;6.82;;;-1.30;60.40;;;;;;5091990;28;20232;-69
2023/02/11 02:35:47;;;;;;;8.90;6.43;;;-1.30;58.80;;;;;;5092444;28;20262;-70
2023/02/11 02:38:23;;;;;;;11.32;5.45;;;-1.40;59.10;;;;;;5092660;28;20246;-71
2023/02/11 02:40:55;;;;;;;10.10;7.38;;;-1.40;59.20;;;;;;5092122;28;20220;-71
2023/02/11 02:43:23;;;;;;;9.98;6.20;;;-1.40;59.80;;;;;;5092035;28;20279;-69
2023/02/11 02:45:52;;;;;;;16.42;6.82;;;-1.40;59.00;;;;;;5091673;28;20308;-69
2023/02/11 02:48:34;;;;;;;12.20;7.53;;;-1.50;58.80;;;;;;5092021;28;20193;-69
2023/02/11 02:51:12;;;;;;;11.93;7.95;;;-1.50;59.10;;;;;;5091996;28;20254;-69
2023/02/11 02:53:52;;;;;;;11.50;7.15;;;-1.60;59.40;;;;;;5092338;28;20220;-70
2023/02/11 02:56:31;;;;;;;7.07;5.28;;;-1.70;60.30;;;;;;5092211;28;20224;-69
2023/02/11 02:59:21;;;;;;;12.45;6.38;;;-1.70;61.30;;;;;;5091645;28;20189;-69
2023/02/11 03:01:57;;;;;;;11.70;6.97;;;-1.70;61.10;;;;;;5092073;28;20582;-70
2023/02/11 03:04:34;;;;;;;10.43;6.20;;;-1.70;61.30;;;;;;5091981;28;20258;-69
2023/02/11 03:07:06;;;;;;;9.57;5.75;;;-1.70;59.90;;;;;;5091853;28;20304;-69
2023/02/11 03:09:39;;;;;;;10.18;6.50;;;-1.70;59.50;;;;;;5091319;28;20272;-69
2023/02/11 03:12:07;;;;;;;9.85;5.70;;;-1.80;59.60;;;;;;5091264;28;20632;-69
2023/02/11 03:14:36;;;;;;;8.43;6.82;;;-1.80;59.60;;;;;;5091685;28;20247;-70
2023/02/11 03:17:05;;;;;;;11.38;6.90;;;-1.80;60.20;;;;;;5090860;28;20242;-70
2023/02/11 03:19:37;;;;;;;12.70;6.05;;;-1.80;60.40;;;;;;5091474;28;20235;-69
2023/02/11 03:22:08;;;;;;;8.35;5.65;;;-1.80;61.40;;;;;;5091296;28;20254;-69
2023/02/11 03:24:38;;;;;;;16.05;6.40;;;-1.80;60.60;;;;;;5091693;28;20619;-69
2023/02/11 03:27:12;;;;;;;8.45;5.40;;;-1.80;60.20;;;;;;5091606;28;20296;-69
2023/02/11 03:29:44;;;;;;;11.40;5.80;;;-1.90;61.30;;;;;;5091657;28;20616;-69
2023/02/11 03:32:19;;;;;;;9.80;4.80;;;-2.00;61.90;;;;;;5091595;28;20189;-69
2023/02/11 03:34:53;;;;;;;9.43;5.65;;;-2.00;62.10;;;;;;5091481;28;20210;-69
2023/02/11 03:37:28;;;;;;;8.50;5.18;;;-2.00;61.40;;;;;;5091107;28;20557;-70
2023/02/11 03:40:00;;;;;;;12.85;6.47;;;-2.00;61.30;;;;;;5091163;28;20669;-70
2023/02/11 03:42:34;;;;;;;9.20;5.38;;;-2.20;62.00;;;;;;5091054;28;20201;-69
2023/02/11 03:45:05;;;;;;;10.05;6.63;;;-2.20;62.70;;;;;;5091608;28;20299;-69
2023/02/11 03:47:37;;;;;;;6.97;5.00;;;-2.20;63.20;;;;;;5091081;28;20715;-69
2023/02/11 03:50:10;;;;;;;10.45;5.78;;;-2.30;63.30;;;;;;5091274;28;20185;-69
2023/02/11 03:52:39;;;;;;;10.75;6.60;;;-2.30;64.10;;;;;;5091056;28;20181;-69
2023/02/11 03:55:11;;;;;;;7.68;4.45;;;-2.30;64.70;;;;;;5091271;28;20571;-70
2023/02/11 03:57:38;;;;;;;6.63;4.93;;;-2.30;65.20;;;;;;5091558;28;20648;-70
2023/02/11 04:00:07;;;;;;;12.40;5.65;;;-2.10;65.30;;;;;;5091455;28;20228;-70
2023/02/11 04:02:36;;;;;;;11.52;5.18;;;-2.10;65.10;;;;;;5091485;28;20223;-70
2023/02/11 04:05:06;;;;;;;7.90;4.35;;;-2.10;63.20;;;;;;5090739;28;20272;-70
2023/02/11 04:07:33;;;;;;;10.07;5.38;;;-2.10;62.40;;;;;;5090698;28;20636;-70
2023/02/11 04:10:01;;;;;;;9.60;5.07;;;-2.00;62.20;;;;;;5091350;28;20272;-70
2023/02/11 04:12:30;;;;;;;7.18;5.18;;;-2.00;61.60;;;;;;5090863;28;20543;-71
2023/02/11 04:15:00;;;;;;;10.40;6.05;;;-2.00;61.30;;;;;;5090890;28;20197;-70
2023/02/11 04:17:27;;;;;;;13.95;7.03;;;-2.00;62.20;;;;;;5091393;28;20192;-69
2023/02/11 04:19:54;;;;;;;16.40;9.40;;;-2.10;62.80;;;;;;5090679;28;20680;-70
2023/02/11 04:22:23;;;;;;;11.60;6.68;;;-2.20;63.10;;;;;;5091252;28;20224;-71
2023/02/11 04:24:51;;;;;;;11.52;7.53;;;-2.20;63.50;;;;;;5090605;28;20197;-72
2023/02/11 04:27:18;;;;;;;13.90;7.47;;;-2.30;63.20;;;;;;5090740;28;20188;-71
2023/02/11 04:29:45;;;;;;;14.20;7.50;;;-2.40;64.20;;;;;;5090538;28;20703;-70
2023/02/11 04:32:13;;;;;;;12.43;6.30;;;-2.30;64.30;;;;;;5091128;28;20217;-69
2023/02/11 04:34:40;;;;;;;9.27;6.00;;;-2.30;64.30;;;;;;5090992;28;20185;-70
2023/02/11 04:37:08;;;;;;;10.40;6.85;;;-2.20;64.20;;;;;;5090851;28;20276;-70
2023/02/11 04:39:37;;;;;;;12.10;6.30;;;-2.10;64.20;;;;;;5091310;28;20185;-69
2023/02/11 04:42:05;;;;;;;10.32;5.95;;;-2.10;63.90;;;;;;5090979;28;20268;-69
2023/02/11 04:44:32;;;;;;;10.77;5.80;;;-2.20;63.30;;;;;;5094814;28;20288;-70
2023/02/11 04:46:59;;;;;;;10.93;6.20;;;-2.10;62.90;;;;;;5094325;28;20308;-69
2023/02/11 04:49:28;;;;;;;7.88;5.15;;;-2.10;62.40;;;;;;5094199;28;20189;-70
2023/02/11 04:51:56;;;;;;;12.05;6.72;;;-2.10;61.20;;;;;;5094405;28;20701;-71
2023/02/11 04:54:23;;;;;;;10.13;5.75;;;-2.10;60.40;;;;;;5094795;28;20193;-69
2023/02/11 04:56:52;;;;;;;12.35;6.15;;;-2.10;59.90;;;;;;5094923;28;20538;-71
2023/02/11 04:59:20;;;;;;;10.38;5.15;;;-2.20;60.00;;;;;;5094846;28;20189;-70
2023/02/11 05:01:48;;;;;;;9.75;5.68;;;-2.30;61.30;;;;;;5095161;28;20271;-69
2023/02/11 05:04:17;;;;;;;8.32;5.78;;;-2.40;62.30;;;;;;5094558;28;20235;-71
2023/02/11 05:06:47;;;;;;;8.38;5.93;;;-2.40;62.90;;;;;;5094313;28;20225;-70
2023/02/11 05:09:15;;;;;;;11.02;6.47;;;-2.40;62.70;;;;;;5095024;28;20196;-71
2023/02/11 05:11:43;;;;;;;10.77;6.47;;;-2.40;62.90;;;;;;5094722;28;20236;-70
2023/02/11 05:14:12;;;;;;;9.75;6.03;;;-2.40;63.00;;;;;;5094753;28;20243;-69
2023/02/11 05:16:40;;;;;;;8.20;5.57;;;-2.40;62.30;;;;;;5094584;28;20195;-69
2023/02/11 05:19:12;;;;;;;13.35;5.60;;;-2.40;61.90;;;;;;5094496;28;20185;-70
2023/02/11 05:21:42;;;;;;;8.50;6.05;;;-2.40;62.20;;;;;;5094865;28;20203;-69
2023/02/11 05:24:12;;;;;;;11.10;5.25;;;-2.40;62.40;;;;;;5094474;28;20297;-69
2023/02/11 05:26:41;;;;;;;11.60;5.30;;;-2.40;62.00;;;;;;5094309;28;20667;-70
2023/02/11 05:29:08;;;;;;;7.80;5.18;;;-2.30;60.50;;;;;;5094332;28;20618;-71
2023/02/11 05:31:36;;;;;;;7.63;5.03;;;-2.30;60.50;;;;;;5093314;28;20531;-69
2023/02/11 05:34:03;;;;;;;9.80;5.57;;;-2.30;60.00;;;;;;5093698;28;20197;-70
2023/02/11 05:36:30;;;;;;;7.28;4.55;;;-2.40;59.70;;;;;;5093436;28;20251;-69
2023/02/11 05:38:58;;;;;;;7.15;4.78;;;-2.40;59.60;;;;;;5093287;28;20228;-69
2023/02/11 05:41:25;;;;;;;7.75;4.93;;;-2.50;59.40;;;;;;5093504;28;20268;-70
2023/02/11 05:43:52;;;;;;;7.95;5.10;;;-2.50;59.80;;;;;;5093304;28;20221;-70
2023/02/11 05:46:19;;;;;;;7.40;4.32;;;-2.50;60.00;;;;;;5093245;28;20248;-70
2023/02/11 05:48:47;;;;;;;7.10;5.00;;;-2.60;60.00;;;;;;5093464;28;20280;-70
2023/02/11 05:51:14;;;;;;;6.95;5.15;;;-2.60;60.30;;;;;;5093496;28;20240;-70
2023/02/11 05:53:41;;;;;;;11.02;6.28;;;-2.60;60.40;;;;;;5092825;28;20280;-70
2023/02/11 05:56:09;;;;;;;10.23;5.80;;;-2.60;60.70;;;;;;5093128;28;20277;-70
2023/02/11 05:58:37;;;;;;;7.30;4.32;;;-2.60;60.10;;;;;;5093071;28;20239;-70
2023/02/11 06:01:04;;;;;;;10.38;4.47;;;-2.60;59.70;;;;;;5093126;28;20195;-70
2023/02/11 06:03:31;;;;;;;6.65;4.55;;;-2.60;59.80;;;;;;5092544;28;20281;-69
2023/02/11 06:06:00;;;;;;;10.43;5.25;;;-2.60;60.20;;;;;;5092513;28;20778;-70
2023/02/11 06:08:28;;;;;;;9.95;5.20;;;-2.60;60.90;;;;;;5092592;28;20229;-69
2023/02/11 06:10:55;;;;;;;11.35;6.05;;;-2.60;61.10;;;;;;5092711;28;20231;-70
2023/02/11 06:13:22;;;;;;;11.43;5.93;;;-2.50;61.60;;;;;;5092706;28;20191;-69
2023/02/11 06:15:56;;;;;;;11.45;6.10;;;-2.50;62.20;;;;;;5092674;28;20284;-70
2023/02/11 06:18:23;;;;;;;12.90;5.22;;;-2.50;62.80;;;;;;5072570;28;20279;-69
2023/02/11 06:20:50;;;;;;;14.65;6.28;;;-2.40;63.30;;;;;;5072625;28;20272;-71
2023/02/11 06:23:18;;;;;;;13.57;7.65;;;-2.30;62.80;;;;;;5092417;28;20236;-70
2023/02/11 06:25:45;;;;;;;21.08;8.82;;;-2.30;62.80;;;;;;5092681;28;20630;-70
2023/02/11 06:28:14;;;;;;;12.30;7.60;;;-2.20;62.90;;;;;;5092446;28;20287;-71
2023/02/11 06:30:41;;;;;;;12.45;8.65;;;-2.20;62.10;;;;;;5092950;28;20221;-70
2023/02/11 06:33:08;;;;;;;15.85;11.40;;;-2.20;62.30;;;;;;5092646;28;20599;-70
2023/02/11 06:35:38;;;;;;;12.77;9.25;;;-2.10;62.10;;;;;;5092752;28;20322;-70
2023/02/11 06:38:05;;;;;;;16.00;9.68;;;-2.20;61.80;;;;;;5092435;28;20239;-70
2023/02/11 06:40:33;;;;;;;18.75;11.32;;;-2.30;62.40;;;;;;5092465;28;20247;-70
2023/02/11 06:43:00;;;;;;;15.13;9.40;;;-2.40;63.10;;;;;;5092233;28;20272;-70
2023/02/11 06:45:27;;;;;;;17.38;8.18;;;-2.40;63.20;;;;;;5092343;28;20220;-69
2023/02/11 06:47:54;;;;;;;14.32;8.65;;;-2.40;64.10;;;;;;5092274;28;20189;-69
2023/02/11 06:50:21;;;;;;;11.13;8.18;;;-2.40;64.30;;;;;;5092247;28;20231;-69
2023/02/11 06:52:48;;;;;;;16.92;7.30;;;-2.30;64.50;;;;;;5091933;28;20371;-70
2023/02/11 06:55:15;;;;;;;9.60;5.90;;;-2.20;64.80;;;;;;5092517;28;20278;-70
2023/02/11 06:57:44;;;;;;;10.25;4.68;;;-2.10;65.20;;;;;;5092026;28;20705;-70
2023/02/11 07:00:12;;;;;;;9.38;5.32;;;-2.00;65.50;;;;;;5091929;28;20275;-69
2023/02/11 07:02:39;;;;;;;6.05;4.20;;;-1.90;65.40;;;;;;5091675;28;20189;-69
2023/02/11 07:05:06;;;;;;;8.25;4.45;;;-1.80;65.40;;;;;;5091184;28;20304;-70
2023/02/11 07:07:34;;;;;;;7.85;4.82;;;-1.70;65.80;;;;;;5091786;28;20224;-69
2023/02/11 07:10:03;;;;;;;11.85;5.22;;;-1.50;65.60;;;;;;5092019;28;20279;-69
2023/02/11 07:12:34;;;;;;;8.95;5.88;;;-1.40;65.60;;;;;;5091753;28;20236;-69
2023/02/11 07:15:02;;;;;;;8.70;6.18;;;-1.30;65.50;;;;;;5091927;28;20238;-69
2023/02/11 07:17:29;;;;;;;9.20;6.10;;;-1.20;65.40;;;;;;5091683;28;20239;-71
2023/02/11 07:20:24;;;;;;;14.18;7.13;;;-1.10;65.70;;;;;;5091807;28;20232;-69
2023/02/11 07:22:54;;;;;;;13.25;8.60;;;-1.00;65.80;;;;;;5089572;28;20188;-70
2023/02/11 07:25:21;;;;;;;10.95;8.55;;;-0.80;65.20;;;;;;5091798;28;20199;-70
2023/02/11 07:27:50;;;;;;;12.98;8.32;;;-0.80;64.30;;;;;;5091682;28;20274;-69
2023/02/11 07:30:18;;;;;;;13.18;7.47;;;-0.70;64.00;;;;;;5091371;28;20232;-69
2023/02/11 07:32:45;;;;;;;12.23;7.45;;;-0.60;64.10;;;;;;5091483;28;20280;-70
2023/02/11 07:35:14;;;;;;;12.10;8.68;;;-0.50;63.70;;;;;;5089695;28;20652;-69
2023/02/11 07:37:41;;;;;;;14.50;9.38;;;-0.50;63.10;;;;;;5086062;28;20185;-70
2023/02/11 07:40:10;;;;;;;14.43;9.23;;;-0.50;63.00;;;;;;5069281;28;20204;-69
2023/02/11 07:42:39;;;;;;;18.45;10.80;;;-0.40;63.00;;;;;;5072610;28;20280;-74
2023/02/11 07:45:07;;;;;;;16.48;6.85;;;-0.30;62.80;;;;;;5079474;28;20738;-70
2023/02/11 07:47:37;;;;;;;16.30;7.57;;;-0.20;62.60;;;;;;5088280;28;20220;-69
2023/02/11 07:50:05;;;;;;;35.13;19.85;;;-0.20;62.30;;;;;;5087720;28;20197;-71
2023/02/11 07:52:33;;;;;;;18.42;12.15;;;-0.20;62.40;;;;;;5088028;28;20204;-69
2023/02/11 07:55:00;;;;;;;15.38;10.32;;;-0.10;62.20;;;;;;5086357;28;20643;-69
2023/02/11 07:57:27;;;;;;;16.00;8.52;;;0.00;62.20;;;;;;5087939;28;20193;-69
2023/02/11 07:59:54;;;;;;;12.10;6.18;;;0.00;62.60;;;;;;5089084;28;20285;-70
2023/02/11 08:02:25;;;;;;;7.82;5.80;;;0.10;63.00;;;;;;5086552;28;20208;-70
2023/02/11 08:04:53;;;;;;;9.80;5.90;;;0.20;63.20;;;;;;5087304;28;20193;-71
2023/02/11 08:07:21;;;;;;;10.15;6.20;;;0.20;64.10;;;;;;5086929;28;20213;-71
2023/02/11 08:09:50;;;;;;;12.77;5.97;;;0.30;63.10;;;;;;5088209;28;20671;-70
2023/02/11 08:12:23;;;;;;;8.35;5.55;;;0.50;62.60;;;;;;5088335;28;20338;-70
2023/02/11 08:14:51;;;;;;;12.95;5.15;;;0.50;61.80;;;;;;5088908;28;20189;-70
2023/02/11 08:17:18;;;;;;;9.43;5.03;;;0.50;62.40;;;;;;5091460;28;20189;-70
2023/02/11 08:19:50;;;;;;;10.20;5.65;;;0.50;61.70;;;;;;5092451;28;20185;-69
2023/02/11 08:22:18;;;;;;;7.43;4.82;;;0.50;61.40;;;;;;5092483;28;20292;-70
2023/02/11 08:24:46;;;;;;;8.68;5.68;;;0.40;61.80;;;;;;5092120;28;20281;-70
2023/02/11 08:27:15;;;;;;;9.45;6.18;;;0.50;62.10;;;;;;5091817;28;20269;-69
2023/02/11 08:29:43;;;;;;;7.65;5.35;;;0.60;61.10;;;;;;5092431;28;20678;-69
2023/02/11 08:32:11;;;;;;;8.35;4.50;;;0.70;60.30;;;;;;5092339;28;20639;-69
2023/02/11 08:34:39;;;;;;;6.88;4.28;;;0.80;60.40;;;;;;5091768;28;20284;-71
2023/02/11 08:37:09;;;;;;;6.47;4.18;;;0.80;60.10;;;;;;5092298;28;20549;-69
2023/02/11 08:39:39;;;;;;;7.70;4.40;;;0.90;60.10;;;;;;5092518;28;20199;-69
2023/02/11 08:42:06;;;;;;;10.27;5.78;;;1.00;60.30;;;;;;5092108;28;20241;-69
2023/02/11 08:44:34;;;;;;;8.30;5.03;;;1.00;61.10;;;;;;5091936;28;20212;-70
2023/02/11 08:47:01;;;;;;;9.68;6.63;;;1.20;62.40;;;;;;5092152;28;20622;-69
2023/02/11 08:49:29;;;;;;;11.95;6.60;;;1.30;62.00;;;;;;5092198;28;20229;-70
2023/02/11 08:52:01;;;;;;;8.30;4.60;;;1.50;61.20;;;;;;5091843;28;20189;-70
2023/02/11 08:54:28;;;;;;;7.90;5.57;;;1.60;60.40;;;;;;5088149;28;20252;-70
2023/02/11 08:56:57;;;;;;;10.60;6.10;;;2.00;59.70;;;;;;5092253;28;20201;-70
2023/02/11 08:59:25;;;;;;;7.25;5.10;;;2.60;59.60;;;;;;5091934;28;20562;-71
2023/02/11 09:01:52;;;;;;;6.28;4.22;;;3.00;58.50;;;;;;5092002;28;20278;-70
2023/02/11 09:04:19;;;;;;;7.05;3.92;;;3.30;57.30;;;;;;5090964;28;20192;-72
2023/02/11 09:06:49;;;;;;;9.18;4.07;;;3.50;55.90;;;;;;5091980;28;20232;-70
2023/02/11 09:09:17;;;;;;;10.65;6.05;;;3.80;54.40;;;;;;5091685;28;20531;-73
2023/02/11 09:11:45;;;;;;;10.25;6.63;;;4.00;54.50;;;;;;5087551;28;20284;-71
2023/02/11 09:14:20;;;;;;;18.10;8.15;;;4.30;53.80;;;;;;5091947;28;20711;-71
2023/02/11 09:16:48;;;;;;;16.25;8.70;;;4.60;53.20;;;;;;5091167;28;20250;-71
2023/02/11 09:19:16;;;;;;;8.98;6.10;;;4.90;51.80;;;;;;5088461;28;20193;-71
2023/02/11 09:21:43;;;;;;;15.50;10.35;;;5.00;50.80;;;;;;5092142;28;20193;-70
2023/02/11 09:24:14;;;;;;;18.25;10.55;;;5.10;51.30;;;;;;5091579;28;20186;-71
2023/02/11 09:26:42;;;;;;;12.82;8.95;;;5.30;50.90;;;;;;5091291;28;20224;-71
2023/02/11 09:29:10;;;;;;;9.30;6.22;;;5.40;49.20;;;;;;5090473;28;20192;-71
2023/02/11 09:31:39;;;;;;;8.98;4.82;;;5.60;48.00;;;;;;5090932;28;20606;-71
2023/02/11 09:34:07;;;;;;;6.45;5.18;;;5.60;47.20;;;;;;5090503;28;20250;-72
2023/02/11 09:36:37;;;;;;;6.50;3.92;;;5.40;46.60;;;;;;5091088;28;20238;-73
2023/02/11 09:39:06;;;;;;;8.63;5.53;;;5.30;47.00;;;;;;5090825;28;20197;-72
2023/02/11 09:41:43;;;;;;;7.80;5.25;;;5.30;47.00;;;;;;5090930;28;20277;-69
2023/02/11 09:44:21;;;;;;;12.85;7.32;;;5.00;47.60;;;;;;5087802;28;20189;-68
2023/02/11 09:46:56;;;;;;;7.53;5.18;;;4.80;48.10;;;;;;5091210;28;20228;-73
2023/02/11 09:49:31;;;;;;;9.85;5.25;;;4.60;49.60;;;;;;5090331;28;20185;-68
2023/02/11 09:52:06;;;;;;;6.95;3.80;;;4.60;49.90;;;;;;5090560;28;20280;-72
2023/02/11 09:54:38;;;;;;;5.95;4.10;;;4.50;50.10;;;;;;5090589;28;20538;-68
2023/02/11 09:57:11;;;;;;;8.95;4.15;;;4.40;50.50;;;;;;5091150;28;20250;-69
2023/02/11 09:59:42;;;;;;;6.80;4.70;;;4.30;51.10;;;;;;5090311;28;20242;-69
2023/02/11 10:02:23;;;;;;;9.23;5.90;;;4.30;52.00;;;;;;5091285;28;20196;-69
2023/02/11 10:05:21;;;;;;;7.70;5.18;;;4.30;52.30;;;;;;5087047;28;20189;-70
2023/02/11 10:07:57;;;;;;;7.72;4.65;;;4.40;53.10;;;;;;5087753;28;20209;-69
2023/02/11 10:10:39;;;;;;;8.73;4.88;;;4.50;52.80;;;;;;5091460;28;20637;-69
2023/02/11 10:13:36;;;;;;;9.20;6.35;;;4.70;51.90;;;;;;5088421;28;20596;-69
2023/02/11 10:16:13;;;;;;;10.32;7.63;;;5.00;50.90;;;;;;5089270;28;20661;-69
2023/02/11 10:18:51;;;;;;;5.95;4.25;;;5.20;50.00;;;;;;5091258;28;20696;-69
2023/02/11 10:21:40;;;;;;;7.75;3.22;;;5.60;49.30;;;;;;5086758;28;20192;-70
2023/02/11 10:24:12;;;;;;;5.82;3.35;;;5.90;49.20;;;;;;5090322;28;20647;-70
2023/02/11 10:26:40;;;;;;;8.23;4.68;;;6.50;49.00;;;;;;5089163;28;20197;-69
2023/02/11 10:29:26;;;;;;;10.02;5.82;;;7.20;47.40;;;;;;5090546;28;20662;-71
2023/02/11 10:31:54;;;;;;;6.68;3.95;;;8.40;46.40;;;;;;5089601;28;20470;-71
2023/02/11 10:34:23;;;;;;;6.57;4.25;;;9.60;41.50;;;;;;5090333;28;20375;-71
2023/02/11 10:36:57;;;;;;;5.75;3.42;;;10.40;38.90;;;;;;5090297;28;20192;-71
2023/02/11 10:39:27;;;;;;;6.75;3.78;;;10.90;37.50;;;;;;5090082;28;20228;-71
2023/02/11 10:41:59;;;;;;;6.55;4.22;;;11.20;35.80;;;;;;5089256;28;20534;-70
2023/02/11 10:44:30;;;;;;;5.32;3.50;;;11.60;33.80;;;;;;5090583;28;20246;-69
2023/02/11 10:47:09;;;;;;;5.95;2.90;;;12.00;32.20;;;;;;5085721;28;20209;-72
2023/02/11 10:49:40;;;;;;;5.90;3.85;;;11.90;31.10;;;;;;5090307;28;20212;-70
2023/02/11 10:52:21;;;;;;;6.90;3.03;;;11.60;31.50;;;;;;5087430;28;20242;-70
2023/02/11 10:54:58;;;;;;;8.40;3.80;;;11.40;29.80;;;;;;5089292;28;20256;-71
2023/02/11 10:57:30;;;;;;;6.00;2.83;;;10.80;29.70;;;;;;5086618;28;20199;-70
2023/02/11 11:00:00;;;;;;;4.82;3.05;;;10.30;29.90;;;;;;5089499;28;20225;-70
2023/02/11 11:02:33;;;;;;;4.40;2.80;;;9.90;30.30;;;;;;5089419;28;20247;-70
2023/02/11 11:05:05;;;;;;;4.30;3.13;;;9.50;31.60;;;;;;5089502;28;20315;-70
2023/02/11 11:07:37;;;;;;;10.18;4.32;;;9.30;32.20;;;;;;5090200;28;20706;-70
2023/02/11 11:10:08;;;;;;;4.95;3.38;;;9.20;31.60;;;;;;5085609;28;20211;-71
2023/02/11 11:12:48;;;;;;;7.15;4.57;;;9.00;31.90;;;;;;5089423;28;20703;-69
2023/02/11 11:15:20;;;;;;;7.40;4.72;;;8.80;32.30;;;;;;5085747;28;20224;-69
2023/02/11 11:18:14;;;;;;;8.05;3.55;;;8.70;33.70;;;;;;5090114;28;20232;-70
2023/02/11 11:20:56;;;;;;;7.00;3.40;;;8.60;33.90;;;;;;5088316;28;20242;-70
2023/02/11 11:23:26;;;;;;;7.38;4.47;;;8.50;34.60;;;;;;5088607;28;20326;-71
2023/02/11 11:26:04;;;;;;;6.20;3.80;;;8.50;34.50;;;;;;5088778;28;20181;-69
2023/02/11 11:28:37;;;;;;;7.97;3.55;;;8.50;35.10;;;;;;5085976;28;20240;-70
2023/02/11 11:31:13;;;;;;;5.22;3.70;;;8.40;35.70;;;;;;5089179;28;20551;-68
2023/02/11 11:33:44;;;;;;;7.10;3.85;;;8.40;35.10;;;;;;5088765;28;20244;-68
2023/02/11 11:36:20;;;;;;;4.90;3.28;;;8.40;35.60;;;;;;5089326;28;20204;-70
2023/02/11 11:38:52;;;;;;;6.32;3.50;;;8.40;36.00;;;;;;5087837;28;20211;-73
2023/02/11 11:41:24;;;;;;;6.18;4.15;;;8.50;36.10;;;;;;5087382;28;20228;-71
2023/02/11 11:44:01;;;;;;;6.93;3.63;;;8.60;35.60;;;;;;5088182;28;20231;-71
2023/02/11 11:46:32;;;;;;;5.85;2.97;;;8.70;35.20;;;;;;5086112;28;20193;-70
2023/02/11 11:49:13;;;;;;;8.80;4.55;;;8.70;34.50;;;;;;5087757;28;20227;-71
2023/02/11 11:51:47;;;;;;;5.43;3.47;;;8.80;34.10;;;;;;5087813;28;20882;-72
2023/02/11 11:54:20;;;;;;;8.15;4.60;;;8.80;34.20;;;;;;5092213;28;20192;-70
2023/02/11 11:56:57;;;;;;;9.35;4.20;;;8.70;33.60;;;;;;5092328;28;20200;-71
2023/02/11 11:59:25;;;;;;;10.93;4.60;;;8.70;33.80;;;;;;5091856;28;20649;-70
2023/02/11 12:02:05;;;;;;;5.45;3.63;;;8.70;34.00;;;;;;5089620;28;20293;-71
2023/02/11 12:04:53;;;;;;;6.18;3.97;;;8.70;34.10;;;;;;5089964;28;20181;-69
2023/02/11 12:07:33;;;;;;;7.20;3.65;;;8.70;34.10;;;;;;5091263;28;20311;-70
2023/02/11 12:10:29;;;;;;;10.27;4.65;;;8.70;34.80;;;;;;5091508;28;20661;-69
2023/02/11 12:13:09;;;;;;;15.00;5.88;;;8.60;32.50;;;;;;5087494;28;20184;-70
2023/02/11 12:15:44;;;;;;;7.57;4.30;;;8.50;32.20;;;;;;5092663;28;20250;-69
2023/02/11 12:18:36;;;;;;;10.70;4.75;;;8.50;33.00;;;;;;5088188;28;20203;-69
2023/02/11 12:21:19;;;;;;;9.15;3.90;;;8.50;32.50;;;;;;5087414;28;20538;-69
2023/02/11 12:24:02;;;;;;;4.53;2.88;;;8.50;32.60;;;;;;5090609;28;20200;-70
2023/02/11 12:26:34;;;;;;;9.10;3.80;;;8.60;32.90;;;;;;5089350;28;20197;-69
2023/02/11 12:29:11;;;;;;;5.65;4.10;;;8.60;32.40;;;;;;5091123;28;20694;-71
2023/02/11 12:31:52;;;;;;;8.80;3.72;;;8.60;32.00;;;;;;5091480;28;20196;-69
2023/02/11 12:34:42;;;;;;;7.85;3.22;;;8.70;32.30;;;;;;5088926;28;20192;-72
2023/02/11 12:37:24;;;;;;;10.00;4.20;;;8.70;33.00;;;;;;5090434;28;20531;-69
2023/02/11 12:40:03;;;;;;;6.20;4.07;;;8.70;33.50;;;;;;5091939;28;20189;-70
2023/02/11 12:45:42;;;;;;;5.53;3.58;;;8.80;34.30;;;;;;5089320;28;20204;-70
2023/02/11 12:48:36;;;;;;;5.32;4.20;;;8.80;35.20;;;;;;5091660;28;20251;-69
2023/02/11 12:51:13;;;;;;;5.70;3.47;;;8.80;34.60;;;;;;5087117;28;20193;-71
2023/02/11 12:54:01;;;;;;;6.72;3.47;;;8.80;34.00;;;;;;5091806;28;20189;-70
2023/02/11 12:56:36;;;;;;;8.20;4.75;;;9.00;33.80;;;;;;5089180;28;20209;-71
2023/02/11 12:59:13;;;;;;;4.88;3.08;;;9.10;33.10;;;;;;5090604;28;20525;-70
2023/02/11 13:01:43;;;;;;;8.50;4.15;;;9.50;33.30;;;;;;5091646;28;20188;-71
2023/02/11 13:04:18;;;;;;;5.55;3.25;;;10.00;31.70;;;;;;5089962;28;20193;-71
2023/02/11 13:06:51;;;;;;;5.97;3.05;;;10.50;31.20;;;;;;5088705;28;20303;-70
2023/02/11 13:09:24;;;;;;;6.00;3.10;;;11.10;30.70;;;;;;5091458;28;20221;-72
2023/02/11 13:13:15;;;;;;;5.13;3.40;;;11.90;30.20;;;;;;5086971;28;20184;-75
2023/02/11 13:15:00;;;;;;;9.45;3.25;;;12.60;28.70;;;;;;5089634;28;20201;-71
2023/02/11 13:17:34;;;;;;;5.60;2.70;;;13.00;28.10;;;;;;5090644;28;20192;-71